sensor_id;sensor_type;location;lat;lon;timestamp;pressure;altitude;pressure_sealevel;temperature;humidity
2178;BME280;1095;50.992;6.798;2023-12-20T00:02:28;100902.53;;;7.90;100.00
2178;BME280;1095;50.992;6.798;2023-12-20T00:18:57;100933.66;;;7.92;100.00
2178;BME280;1095;50.992;6.798;2023-12-20T00:21:48;100936.09;;;7.84;100.00
2178;BME280;1095;50.992;6.798;2023-12-20T00:27:55;100929.75;;;7.77;100.00
2178;BME280;1095;50.992;6.798;2023-12-20T00:30:29;100932.34;;;7.77;100.00
2178;BME280;1095;50.992;6.798;2023-12-20T00:33:12;100922.75;;;7.77;100.00
2178;BME280;1095;50.992;6.798;2023-12-20T00:35:48;100899.09;;;7.59;100.00
2178;BME280;1095;50.992;6.798;2023-12-20T00:51:49;100949.16;;;7.63;100.00
2178;BME280;1095;50.992;6.798;2023-12-20T00:55:15;100938.84;;;7.61;100.00
2178;BME280;1095;50.992;6.798;2023-12-20T00:57:49;100934.84;;;7.57;100.00
2178;BME280;1095;50.992;6.798;2023-12-20T01:01:05;100935.56;;;7.59;100.00
2178;BME280;1095;50.992;6.798;2023-12-20T01:03:55;100939.31;;;7.66;100.00
2178;BME280;1095;50.992;6.798;2023-12-20T01:06:52;100929.13;;;7.54;100.00
2178;BME280;1095;50.992;6.798;2023-12-20T01:09:29;100921.38;;;7.43;100.00
2178;BME280;1095;50.992;6.798;2023-12-20T01:12:19;100935.16;;;7.54;100.00
2178;BME280;1095;50.992;6.798;2023-12-20T01:19:31;100916.56;;;7.38;100.00
2178;BME280;1095;50.992;6.798;2023-12-20T01:43:23;100945.19;;;7.38;100.00
2178;BME280;1095;50.992;6.798;2023-12-20T01:53:08;100936.63;;;7.06;100.00
2178;BME280;1095;50.992;6.798;2023-12-20T01:55:56;100957.31;;;7.07;100.00
2178;BME280;1095;50.992;6.798;2023-12-20T01:58:25;100955.22;;;7.01;100.00
2178;BME280;1095;50.992;6.798;2023-12-20T02:00:52;100941.25;;;6.70;100.00
2178;BME280;1095;50.992;6.798;2023-12-20T02:03:20;100950.25;;;6.66;100.00
2178;BME280;1095;50.992;6.798;2023-12-20T02:05:47;100953.72;;;6.55;100.00
2178;BME280;1095;50.992;6.798;2023-12-20T02:08:14;100948.41;;;6.46;100.00
2178;BME280;1095;50.992;6.798;2023-12-20T02:10:41;100948.06;;;6.39;100.00
2178;BME280;1095;50.992;6.798;2023-12-20T02:13:09;100962.00;;;6.38;100.00
2178;BME280;1095;50.992;6.798;2023-12-20T02:15:36;100967.56;;;6.33;100.00
2178;BME280;1095;50.992;6.798;2023-12-20T02:18:04;100972.31;;;6.28;100.00
2178;BME280;1095;50.992;6.798;2023-12-20T02:20:30;100965.56;;;6.15;100.00
2178;BME280;1095;50.992;6.798;2023-12-20T02:22:58;100955.78;;;6.18;100.00
2178;BME280;1095;50.992;6.798;2023-12-20T02:25:25;100962.03;;;6.16;100.00
2178;BME280;1095;50.992;6.798;2023-12-20T02:27:52;100956.50;;;6.09;100.00
2178;BME280;1095;50.992;6.798;2023-12-20T02:30:18;100973.63;;;6.01;100.00
2178;BME280;1095;50.992;6.798;2023-12-20T02:32:45;100985.56;;;6.03;100.00
2178;BME280;1095;50.992;6.798;2023-12-20T02:35:12;100991.22;;;5.97;100.00
2178;BME280;1095;50.992;6.798;2023-12-20T02:37:38;100983.66;;;5.94;100.00
2178;BME280;1095;50.992;6.798;2023-12-20T02:40:07;100990.50;;;5.95;100.00
2178;BME280;1095;50.992;6.798;2023-12-20T02:42:34;100991.34;;;5.95;100.00
2178;BME280;1095;50.992;6.798;2023-12-20T02:45:00;100989.81;;;6.04;100.00
2178;BME280;1095;50.992;6.798;2023-12-20T02:47:27;100995.97;;;6.14;100.00
2178;BME280;1095;50.992;6.798;2023-12-20T02:49:55;100991.44;;;6.16;100.00
2178;BME280;1095;50.992;6.798;2023-12-20T02:52:23;100988.84;;;6.27;100.00
2178;BME280;1095;50.992;6.798;2023-12-20T02:54:50;100986.47;;;6.24;100.00
2178;BME280;1095;50.992;6.798;2023-12-20T02:57:18;100997.34;;;6.29;100.00
2178;BME280;1095;50.992;6.798;2023-12-20T02:59:44;100992.25;;;6.28;100.00
2178;BME280;1095;50.992;6.798;2023-12-20T03:02:11;100999.47;;;6.36;100.00
2178;BME280;1095;50.992;6.798;2023-12-20T03:04:38;100998.53;;;6.37;100.00
2178;BME280;1095;50.992;6.798;2023-12-20T03:07:04;100993.91;;;6.40;100.00
2178;BME280;1095;50.992;6.798;2023-12-20T03:09:32;100983.41;;;6.42;100.00
2178;BME280;1095;50.992;6.798;2023-12-20T03:11:58;100988.13;;;6.37;100.00
2178;BME280;1095;50.992;6.798;2023-12-20T03:14:27;100986.00;;;6.42;100.00
2178;BME280;1095;50.992;6.798;2023-12-20T03:16:53;100976.78;;;6.38;100.00
2178;BME280;1095;50.992;6.798;2023-12-20T03:19:23;100975.59;;;6.42;100.00
2178;BME280;1095;50.992;6.798;2023-12-20T03:21:50;100971.00;;;6.34;100.00
2178;BME280;1095;50.992;6.798;2023-12-20T03:24:18;100968.28;;;6.36;100.00
2178;BME280;1095;50.992;6.798;2023-12-20T03:26:45;100982.22;;;6.35;100.00
2178;BME280;1095;50.992;6.798;2023-12-20T03:29:12;100978.44;;;6.39;100.00
2178;BME280;1095;50.992;6.798;2023-12-20T03:31:40;100976.31;;;6.44;100.00
2178;BME280;1095;50.992;6.798;2023-12-20T03:34:08;100973.25;;;6.39;100.00
2178;BME280;1095;50.992;6.798;2023-12-20T03:36:36;100974.66;;;6.43;100.00
2178;BME280;1095;50.992;6.798;2023-12-20T03:39:02;100967.81;;;6.42;100.00
2178;BME280;1095;50.992;6.798;2023-12-20T03:41:30;100972.28;;;6.40;100.00
2178;BME280;1095;50.992;6.798;2023-12-20T03:43:57;100981.50;;;6.44;100.00
2178;BME280;1095;50.992;6.798;2023-12-20T03:46:24;100967.19;;;6.49;100.00
2178;BME280;1095;50.992;6.798;2023-12-20T03:48:55;100966.50;;;6.47;100.00
2178;BME280;1095;50.992;6.798;2023-12-20T03:51:21;100966.63;;;6.35;100.00
2178;BME280;1095;50.992;6.798;2023-12-20T03:53:48;100973.59;;;6.34;100.00
2178;BME280;1095;50.992;6.798;2023-12-20T03:56:17;100967.56;;;6.45;100.00
2178;BME280;1095;50.992;6.798;2023-12-20T03:58:43;100964.97;;;6.33;100.00
2178;BME280;1095;50.992;6.798;2023-12-20T04:01:10;100961.09;;;6.28;100.00
2178;BME280;1095;50.992;6.798;2023-12-20T04:03:38;100958.59;;;6.26;100.00
2178;BME280;1095;50.992;6.798;2023-12-20T04:06:06;100962.97;;;6.26;100.00
2178;BME280;1095;50.992;6.798;2023-12-20T04:08:33;100962.84;;;6.27;100.00
2178;BME280;1095;50.992;6.798;2023-12-20T04:11:00;100960.59;;;6.23;100.00
2178;BME280;1095;50.992;6.798;2023-12-20T04:13:27;100954.47;;;6.24;100.00
2178;BME280;1095;50.992;6.798;2023-12-20T04:15:53;100968.88;;;6.28;100.00
2178;BME280;1095;50.992;6.798;2023-12-20T04:18:23;100962.63;;;6.19;100.00
2178;BME280;1095;50.992;6.798;2023-12-20T04:20:49;100963.44;;;6.20;100.00
2178;BME280;1095;50.992;6.798;2023-12-20T04:23:18;100960.97;;;6.18;100.00
2178;BME280;1095;50.992;6.798;2023-12-20T04:25:44;100957.06;;;6.24;100.00
2178;BME280;1095;50.992;6.798;2023-12-20T04:28:12;100954.38;;;6.14;100.00
2178;BME280;1095;50.992;6.798;2023-12-20T04:30:38;100958.53;;;6.06;100.00
2178;BME280;1095;50.992;6.798;2023-12-20T04:33:05;100962.53;;;6.10;100.00
2178;BME280;1095;50.992;6.798;2023-12-20T04:35:31;100958.88;;;6.01;100.00
2178;BME280;1095;50.992;6.798;2023-12-20T04:37:58;100960.53;;;6.02;100.00
2178;BME280;1095;50.992;6.798;2023-12-20T04:40:26;100964.66;;;5.93;100.00
2178;BME280;1095;50.992;6.798;2023-12-20T04:42:52;100973.72;;;5.88;100.00
2178;BME280;1095;50.992;6.798;2023-12-20T04:45:19;100981.06;;;5.94;100.00
2178;BME280;1095;50.992;6.798;2023-12-20T04:47:46;100980.59;;;5.89;100.00
2178;BME280;1095;50.992;6.798;2023-12-20T04:50:12;100977.25;;;5.87;100.00
2178;BME280;1095;50.992;6.798;2023-12-20T04:52:40;100975.28;;;5.90;100.00
2178;BME280;1095;50.992;6.798;2023-12-20T04:55:07;100972.06;;;5.87;100.00
2178;BME280;1095;50.992;6.798;2023-12-20T04:57:35;100977.13;;;5.88;100.00
2178;BME280;1095;50.992;6.798;2023-12-20T05:00:02;100969.47;;;5.87;100.00
2178;BME280;1095;50.992;6.798;2023-12-20T05:02:30;100973.47;;;5.80;100.00
2178;BME280;1095;50.992;6.798;2023-12-20T05:04:56;100977.13;;;5.77;100.00
2178;BME280;1095;50.992;6.798;2023-12-20T05:07:23;100969.44;;;5.76;100.00
2178;BME280;1095;50.992;6.798;2023-12-20T05:09:49;100965.66;;;5.80;100.00
2178;BME280;1095;50.992;6.798;2023-12-20T05:12:16;100971.69;;;5.80;100.00
2178;BME280;1095;50.992;6.798;2023-12-20T05:14:44;100965.91;;;5.77;100.00
2178;BME280;1095;50.992;6.798;2023-12-20T05:17:11;100964.00;;;5.67;100.00
2178;BME280;1095;50.992;6.798;2023-12-20T05:19:37;100965.56;;;5.81;100.00
2178;BME280;1095;50.992;6.798;2023-12-20T05:22:04;100972.53;;;5.81;100.00
2178;BME280;1095;50.992;6.798;2023-12-20T05:24:30;100974.88;;;5.84;100.00
2178;BME280;1095;50.992;6.798;2023-12-20T05:26:57;100959.28;;;5.73;100.00
2178;BME280;1095;50.992;6.798;2023-12-20T05:29:24;100977.13;;;5.66;100.00
2178;BME280;1095;50.992;6.798;2023-12-20T05:31:53;100961.91;;;5.61;100.00
2178;BME280;1095;50.992;6.798;2023-12-20T05:34:23;100958.09;;;5.54;100.00
2178;BME280;1095;50.992;6.798;2023-12-20T05:36:52;100965.91;;;5.54;100.00
2178;BME280;1095;50.992;6.798;2023-12-20T05:39:29;100968.59;;;5.53;100.00
2178;BME280;1095;50.992;6.798;2023-12-20T05:41:56;100976.28;;;5.54;100.00
2178;BME280;1095;50.992;6.798;2023-12-20T05:44:23;100977.09;;;5.55;100.00
2178;BME280;1095;50.992;6.798;2023-12-20T05:46:53;100975.47;;;5.65;100.00
2178;BME280;1095;50.992;6.798;2023-12-20T05:49:22;100966.38;;;5.71;100.00
2178;BME280;1095;50.992;6.798;2023-12-20T05:51:49;100965.66;;;5.80;100.00
2178;BME280;1095;50.992;6.798;2023-12-20T05:54:17;100972.97;;;5.75;100.00
2178;BME280;1095;50.992;6.798;2023-12-20T05:56:43;100975.22;;;5.79;100.00
2178;BME280;1095;50.992;6.798;2023-12-20T05:59:10;100974.41;;;5.79;100.00
2178;BME280;1095;50.992;6.798;2023-12-20T06:01:36;100984.78;;;5.79;100.00
2178;BME280;1095;50.992;6.798;2023-12-20T06:04:05;100972.63;;;5.79;100.00
2178;BME280;1095;50.992;6.798;2023-12-20T06:06:34;100981.50;;;5.88;100.00
2178;BME280;1095;50.992;6.798;2023-12-20T06:09:01;100978.31;;;5.84;100.00
2178;BME280;1095;50.992;6.798;2023-12-20T06:11:28;100981.19;;;5.92;100.00
2178;BME280;1095;50.992;6.798;2023-12-20T06:13:54;100977.06;;;5.90;100.00
2178;BME280;1095;50.992;6.798;2023-12-20T06:16:21;100981.06;;;5.94;100.00
2178;BME280;1095;50.992;6.798;2023-12-20T06:18:48;100978.00;;;6.00;100.00
2178;BME280;1095;50.992;6.798;2023-12-20T06:21:19;100979.78;;;5.99;100.00
2178;BME280;1095;50.992;6.798;2023-12-20T06:23:45;100986.28;;;6.05;100.00
2178;BME280;1095;50.992;6.798;2023-12-20T06:26:12;100997.84;;;6.12;100.00
2178;BME280;1095;50.992;6.798;2023-12-20T06:28:38;100996.53;;;6.07;100.00
2178;BME280;1095;50.992;6.798;2023-12-20T06:31:05;100986.03;;;6.08;100.00
2178;BME280;1095;50.992;6.798;2023-12-20T06:33:32;100984.25;;;6.09;100.00
2178;BME280;1095;50.992;6.798;2023-12-20T06:35:58;100984.34;;;6.18;100.00
2178;BME280;1095;50.992;6.798;2023-12-20T06:38:26;100980.09;;;6.17;100.00
2178;BME280;1095;50.992;6.798;2023-12-20T06:40:53;100978.22;;;6.19;100.00
2178;BME280;1095;50.992;6.798;2023-12-20T06:43:22;100977.38;;;6.19;100.00
2178;BME280;1095;50.992;6.798;2023-12-20T06:45:49;100993.09;;;6.28;100.00
2178;BME280;1095;50.992;6.798;2023-12-20T06:48:16;100982.69;;;6.28;100.00
2178;BME280;1095;50.992;6.798;2023-12-20T06:50:42;100986.72;;;6.32;100.00
2178;BME280;1095;50.992;6.798;2023-12-20T06:53:09;100987.78;;;6.30;100.00
2178;BME280;1095;50.992;6.798;2023-12-20T06:55:37;100978.69;;;6.36;100.00
2178;BME280;1095;50.992;6.798;2023-12-20T06:58:04;100972.88;;;6.32;100.00
2178;BME280;1095;50.992;6.798;2023-12-20T07:00:32;100977.03;;;6.35;100.00
2178;BME280;1095;50.992;6.798;2023-12-20T07:02:59;100961.66;;;6.31;100.00
2178;BME280;1095;50.992;6.798;2023-12-20T07:05:26;100972.16;;;6.41;100.00
2178;BME280;1095;50.992;6.798;2023-12-20T07:07:52;100978.91;;;6.44;100.00
2178;BME280;1095;50.992;6.798;2023-12-20T07:10:19;100972.06;;;6.43;100.00
2178;BME280;1095;50.992;6.798;2023-12-20T07:12:47;100977.72;;;6.37;100.00
2178;BME280;1095;50.992;6.798;2023-12-20T07:15:14;100977.50;;;6.40;100.00
2178;BME280;1095;50.992;6.798;2023-12-20T07:17:41;100972.28;;;6.40;100.00
2178;BME280;1095;50.992;6.798;2023-12-20T07:20:09;100976.31;;;6.44;100.00
2178;BME280;1095;50.992;6.798;2023-12-20T07:22:36;100980.09;;;6.40;100.00
2178;BME280;1095;50.992;6.798;2023-12-20T07:25:03;100974.66;;;6.43;100.00
2178;BME280;1095;50.992;6.798;2023-12-20T07:27:30;100968.53;;;6.32;100.00
2178;BME280;1095;50.992;6.798;2023-12-20T07:29:58;100970.16;;;6.33;100.00
2178;BME280;1095;50.992;6.798;2023-12-20T07:32:25;100971.72;;;6.36;100.00
2178;BME280;1095;50.992;6.798;2023-12-20T07:34:52;100980.34;;;6.37;100.00
2178;BME280;1095;50.992;6.798;2023-12-20T07:37:19;100965.22;;;6.30;100.00
2178;BME280;1095;50.992;6.798;2023-12-20T07:39:46;100964.72;;;6.37;100.00
2178;BME280;1095;50.992;6.798;2023-12-20T07:42:13;100956.09;;;6.36;100.00
2178;BME280;1095;50.992;6.798;2023-12-20T07:44:39;100971.34;;;6.41;100.00
2178;BME280;1095;50.992;6.798;2023-12-20T07:47:08;100970.63;;;6.39;100.00
2178;BME280;1095;50.992;6.798;2023-12-20T07:49:34;100975.84;;;6.39;100.00
2178;BME280;1095;50.992;6.798;2023-12-20T07:52:01;100972.28;;;6.40;100.00
2178;BME280;1095;50.992;6.798;2023-12-20T07:54:27;100975.00;;;6.38;100.00
2178;BME280;1095;50.992;6.798;2023-12-20T07:56:57;100989.41;;;6.42;100.00
2178;BME280;1095;50.992;6.798;2023-12-20T07:59:23;100995.44;;;6.43;100.00
2178;BME280;1095;50.992;6.798;2023-12-20T08:01:50;100969.47;;;6.43;100.00
2178;BME280;1095;50.992;6.798;2023-12-20T08:04:18;100981.03;;;6.39;100.00
2178;BME280;1095;50.992;6.798;2023-12-20T08:06:45;100972.28;;;6.40;100.00
2178;BME280;1095;50.992;6.798;2023-12-20T08:09:11;100975.13;;;6.37;100.00
2178;BME280;1095;50.992;6.798;2023-12-20T08:11:38;100977.84;;;6.35;100.00
2178;BME280;1095;50.992;6.798;2023-12-20T08:14:04;100973.25;;;6.27;100.00
2178;BME280;1095;50.992;6.798;2023-12-20T08:16:31;100979.41;;;6.26;100.00
2178;BME280;1095;50.992;6.798;2023-12-20T08:18:58;100972.53;;;6.25;100.00
2178;BME280;1095;50.992;6.798;2023-12-20T08:21:26;100969.22;;;6.23;100.00
2178;BME280;1095;50.992;6.798;2023-12-20T08:23:52;100971.84;;;6.23;100.00
2178;BME280;1095;50.992;6.798;2023-12-20T08:26:19;100971.94;;;6.22;100.00
2178;BME280;1095;50.992;6.798;2023-12-20T08:28:48;100969.13;;;6.25;100.00
2178;BME280;1095;50.992;6.798;2023-12-20T08:31:14;100977.50;;;6.28;100.00
2178;BME280;1095;50.992;6.798;2023-12-20T08:33:43;100968.41;;;6.23;100.00
2178;BME280;1095;50.992;6.798;2023-12-20T08:36:10;100973.97;;;6.29;100.00
2178;BME280;1095;50.992;6.798;2023-12-20T08:38:38;100963.81;;;6.26;100.00
2178;BME280;1095;50.992;6.798;2023-12-20T08:41:05;100980.56;;;6.33;100.00
2178;BME280;1095;50.992;6.798;2023-12-20T08:43:31;100986.13;;;6.40;100.00
2178;BME280;1095;50.992;6.798;2023-12-20T08:45:58;100983.41;;;6.42;100.00
2178;BME280;1095;50.992;6.798;2023-12-20T08:48:25;100993.31;;;6.48;100.00
2178;BME280;1095;50.992;6.798;2023-12-20T08:50:52;100999.94;;;6.52;100.00
2178;BME280;1095;50.992;6.798;2023-12-20T08:53:18;100996.25;;;6.54;100.00
2178;BME280;1095;50.992;6.798;2023-12-20T08:55:46;100993.66;;;6.54;100.00
2178;BME280;1095;50.992;6.798;2023-12-20T08:58:13;101001.66;;;6.62;100.00
2178;BME280;1095;50.992;6.798;2023-12-20T09:00:40;100994.50;;;6.55;100.00
2178;BME280;1095;50.992;6.798;2023-12-20T09:03:07;101003.91;;;6.67;100.00
2178;BME280;1095;50.992;6.798;2023-12-20T09:05:33;101006.63;;;6.65;100.00
2178;BME280;1095;50.992;6.798;2023-12-20T09:08:00;101002.06;;;6.58;100.00
2178;BME280;1095;50.992;6.798;2023-12-20T09:10:26;100993.66;;;6.54;100.00
2178;BME280;1095;50.992;6.798;2023-12-20T09:12:54;100994.25;;;6.58;100.00
2178;BME280;1095;50.992;6.798;2023-12-20T09:15:23;100982.91;;;6.59;100.00
2178;BME280;1095;50.992;6.798;2023-12-20T09:17:50;100982.91;;;6.59;100.00
2178;BME280;1095;50.992;6.798;2023-12-20T09:20:17;100983.59;;;6.61;100.00
2178;BME280;1095;50.992;6.798;2023-12-20T09:22:44;100969.59;;;6.73;100.00
2178;BME280;1095;50.992;6.798;2023-12-20T09:25:11;100957.78;;;6.69;100.00
2178;BME280;1095;50.992;6.798;2023-12-20T09:27:38;100962.03;;;6.70;100.00
2178;BME280;1095;50.992;6.798;2023-12-20T09:30:07;100952.56;;;6.80;100.00
2178;BME280;1095;50.992;6.798;2023-12-20T09:32:33;100954.81;;;6.74;100.00
2178;BME280;1095;50.992;6.798;2023-12-20T09:35:00;100960.16;;;6.72;100.00
2178;BME280;1095;50.992;6.798;2023-12-20T09:37:27;100950.81;;;6.70;100.00
2178;BME280;1095;50.992;6.798;2023-12-20T09:39:54;100959.91;;;6.75;100.00
2178;BME280;1095;50.992;6.798;2023-12-20T09:42:24;100969.81;;;6.81;100.00
2178;BME280;1095;50.992;6.798;2023-12-20T09:44:58;100969.13;;;6.79;100.00
2178;BME280;1095;50.992;6.798;2023-12-20T09:47:30;100959.28;;;6.83;100.00
2178;BME280;1095;50.992;6.798;2023-12-20T09:49:56;100965.91;;;6.87;100.00
2178;BME280;1095;50.992;6.798;2023-12-20T09:52:24;100971.97;;;6.76;100.00
2178;BME280;1095;50.992;6.798;2023-12-20T09:54:52;100955.16;;;6.80;100.00
2178;BME280;1095;50.992;6.798;2023-12-20T09:57:20;100966.28;;;6.82;100.00
2178;BME280;1095;50.992;6.798;2023-12-20T09:59:46;100974.56;;;6.76;100.00
2178;BME280;1095;50.992;6.798;2023-12-20T10:02:13;100963.44;;;6.85;100.00
2178;BME280;1095;50.992;6.798;2023-12-20T10:04:46;100969.31;;;6.87;100.00
2178;BME280;1095;50.992;6.798;2023-12-20T10:07:13;100963.06;;;6.90;100.00
2178;BME280;1095;50.992;6.798;2023-12-20T10:09:40;100961.28;;;6.90;100.00
2178;BME280;1095;50.992;6.798;2023-12-20T10:12:08;100962.09;;;6.91;100.00
2178;BME280;1095;50.992;6.798;2023-12-20T10:14:35;100960.53;;;6.99;100.00
2178;BME280;1095;50.992;6.798;2023-12-20T10:17:02;100962.63;;;7.06;100.00
2178;BME280;1095;50.992;6.798;2023-12-20T10:19:29;100959.34;;;7.04;100.00
2178;BME280;1095;50.992;6.798;2023-12-20T10:21:57;100963.19;;;7.09;100.00
2178;BME280;1095;50.992;6.798;2023-12-20T10:24:24;100960.09;;;7.15;100.00
2178;BME280;1095;50.992;6.798;2023-12-20T10:27:01;100959.97;;;7.17;100.00
2178;BME280;1095;50.992;6.798;2023-12-20T10:29:32;100960.22;;;7.14;100.00
2178;BME280;1095;50.992;6.798;2023-12-20T10:31:58;100941.81;;;7.06;100.00
2178;BME280;1095;50.992;6.798;2023-12-20T10:34:25;100939.09;;;7.07;100.00
2178;BME280;1095;50.992;6.798;2023-12-20T10:36:52;100942.94;;;7.13;100.00
2178;BME280;1095;50.992;6.798;2023-12-20T10:39:20;100930.19;;;7.10;100.00
2178;BME280;1095;50.992;6.798;2023-12-20T10:41:47;100927.66;;;6.98;100.00
2178;BME280;1095;50.992;6.798;2023-12-20T10:44:14;100926.44;;;7.23;100.00
2178;BME280;1095;50.992;6.798;2023-12-20T10:46:41;100916.16;;;7.22;100.00
2178;BME280;1095;50.992;6.798;2023-12-20T10:49:16;100913.19;;;7.06;100.00
2178;BME280;1095;50.992;6.798;2023-12-20T10:51:45;100918.81;;;7.11;100.00
2178;BME280;1095;50.992;6.798;2023-12-20T10:54:13;100910.06;;;7.12;100.00
2178;BME280;1095;50.992;6.798;2023-12-20T10:56:41;100904.63;;;7.15;100.00
2178;BME280;1095;50.992;6.798;2023-12-20T10:59:10;100916.63;;;7.06;100.00
2178;BME280;1095;50.992;6.798;2023-12-20T11:01:38;100931.16;;;7.09;100.00
2178;BME280;1095;50.992;6.798;2023-12-20T11:04:09;100913.25;;;7.15;100.00
2178;BME280;1095;50.992;6.798;2023-12-20T11:06:45;100910.50;;;7.17;100.00
2178;BME280;1095;50.992;6.798;2023-12-20T11:09:16;100914.72;;;7.08;100.00
2178;BME280;1095;50.992;6.798;2023-12-20T11:12:09;100908.41;;;7.11;100.00
2178;BME280;1095;50.992;6.798;2023-12-20T11:14:41;100912.13;;;7.08;100.00
2178;BME280;1095;50.992;6.798;2023-12-20T11:17:10;100929.50;;;7.08;100.00
2178;BME280;1095;50.992;6.798;2023-12-20T11:20:04;100909.00;;;7.14;100.00
2178;BME280;1095;50.992;6.798;2023-12-20T11:22:32;100921.56;;;7.09;100.00
2178;BME280;1095;50.992;6.798;2023-12-20T11:25:03;100914.19;;;7.14;100.00
2178;BME280;1095;50.992;6.798;2023-12-20T11:27:32;100912.41;;;7.15;100.00
2178;BME280;1095;50.992;6.798;2023-12-20T11:29:59;100900.81;;;7.19;100.00
2178;BME280;1095;50.992;6.798;2023-12-20T11:32:29;100894.31;;;7.34;100.00
2178;BME280;1095;50.992;6.798;2023-12-20T11:34:56;100895.16;;;7.35;100.00
2178;BME280;1095;50.992;6.798;2023-12-20T11:37:28;100885.66;;;7.54;100.00
2178;BME280;1095;50.992;6.798;2023-12-20T11:39:56;100895.25;;;7.54;100.00
2178;BME280;1095;50.992;6.798;2023-12-20T11:42:27;100886.63;;;7.53;100.00
2178;BME280;1095;50.992;6.798;2023-12-20T11:44:55;100896.09;;;7.54;100.00
2178;BME280;1095;50.992;6.798;2023-12-20T11:47:22;100883.72;;;7.56;100.00
2178;BME280;1095;50.992;6.798;2023-12-20T11:49:49;100885.38;;;7.48;100.00
2178;BME280;1095;50.992;6.798;2023-12-20T11:52:17;100893.56;;;7.43;100.00
2178;BME280;1095;50.992;6.798;2023-12-20T11:54:43;100886.56;;;7.44;100.00
2178;BME280;1095;50.992;6.798;2023-12-20T11:57:10;100891.34;;;7.39;100.00
2178;BME280;1095;50.992;6.798;2023-12-20T11:59:36;100882.00;;;7.36;100.00
2178;BME280;1095;50.992;6.798;2023-12-20T12:02:05;100889.31;;;7.42;100.00
2178;BME280;1095;50.992;6.798;2023-12-20T12:04:32;100872.56;;;7.35;100.00
2178;BME280;1095;50.992;6.798;2023-12-20T12:06:58;100889.63;;;7.28;100.00
2178;BME280;1095;50.992;6.798;2023-12-20T12:09:25;100878.00;;;7.32;100.00
2178;BME280;1095;50.992;6.798;2023-12-20T12:11:52;100874.00;;;7.28;100.00
2178;BME280;1095;50.992;6.798;2023-12-20T12:14:18;100870.16;;;7.22;100.00
2178;BME280;1095;50.992;6.798;2023-12-20T12:16:46;100860.88;;;7.29;100.00
2178;BME280;1095;50.992;6.798;2023-12-20T12:19:21;100860.75;;;7.31;100.00
2178;BME280;1095;50.992;6.798;2023-12-20T12:21:48;100861.13;;;7.26;100.00
2178;BME280;1095;50.992;6.798;2023-12-20T12:24:15;100857.97;;;7.23;100.00
2178;BME280;1095;50.992;6.798;2023-12-20T12:26:41;100855.03;;;7.16;100.00
2178;BME280;1095;50.992;6.798;2023-12-20T12:29:08;100863.41;;;7.20;100.00
2178;BME280;1095;50.992;6.798;2023-12-20T12:31:35;100861.50;;;7.22;100.00
2178;BME280;1095;50.992;6.798;2023-12-20T12:34:02;100860.00;;;7.19;100.00
2178;BME280;1095;50.992;6.798;2023-12-20T12:36:30;100854.41;;;7.24;100.00
2178;BME280;1095;50.992;6.798;2023-12-20T12:38:57;100854.31;;;7.35;100.00
2178;BME280;1095;50.992;6.798;2023-12-20T12:41:24;100859.28;;;7.38;100.00
2178;BME280;1095;50.992;6.798;2023-12-20T12:43:51;100850.78;;;7.36;100.00
2178;BME280;1095;50.992;6.798;2023-12-20T12:46:17;100851.41;;;7.28;100.00
2178;BME280;1095;50.992;6.798;2023-12-20T12:48:44;100844.44;;;7.29;100.00
2178;BME280;1095;50.992;6.798;2023-12-20T12:51:11;100845.25;;;7.29;100.00
2178;BME280;1095;50.992;6.798;2023-12-20T12:53:40;100850.97;;;7.23;100.00
2178;BME280;1095;50.992;6.798;2023-12-20T12:56:07;100838.78;;;7.24;100.00
2178;BME280;1095;50.992;6.798;2023-12-20T12:58:34;100838.97;;;7.32;100.00
2178;BME280;1095;50.992;6.798;2023-12-20T13:01:00;100833.06;;;7.30;100.00
2178;BME280;1095;50.992;6.798;2023-12-20T13:03:28;100830.38;;;7.41;100.00
2178;BME280;1095;50.992;6.798;2023-12-20T13:05:55;100826.31;;;7.48;100.00
2178;BME280;1095;50.992;6.798;2023-12-20T13:08:22;100833.16;;;7.49;100.00
2178;BME280;1095;50.992;6.798;2023-12-20T13:10:50;100824.41;;;7.60;100.00
2178;BME280;1095;50.992;6.798;2023-12-20T13:13:17;100825.66;;;7.56;100.00
2178;BME280;1095;50.992;6.798;2023-12-20T13:15:44;100821.22;;;7.56;100.00
2178;BME280;1095;50.992;6.798;2023-12-20T13:18:16;100805.34;;;7.59;100.00
2178;BME280;1095;50.992;6.798;2023-12-20T13:20:42;100804.53;;;7.59;100.00
2178;BME280;1095;50.992;6.798;2023-12-20T13:23:09;100804.25;;;7.52;100.00
2178;BME280;1095;50.992;6.798;2023-12-20T13:25:35;100786.56;;;7.46;100.00
2178;BME280;1095;50.992;6.798;2023-12-20T13:28:04;100790.66;;;7.49;100.00
2178;BME280;1095;50.992;6.798;2023-12-20T13:30:31;100786.97;;;7.61;100.00
2178;BME280;1095;50.992;6.798;2023-12-20T13:32:57;100784.50;;;7.59;100.00
2178;BME280;1095;50.992;6.798;2023-12-20T13:35:25;100787.81;;;7.61;100.00
2178;BME280;1095;50.992;6.798;2023-12-20T13:37:51;100789.72;;;7.59;100.00
2178;BME280;1095;50.992;6.798;2023-12-20T13:40:18;100789.97;;;7.56;100.00
2178;BME280;1095;50.992;6.798;2023-12-20T13:42:45;100782.03;;;7.48;100.00
2178;BME280;1095;50.992;6.798;2023-12-20T13:45:13;100783.69;;;7.49;100.00
2178;BME280;1095;50.992;6.798;2023-12-20T13:47:39;100776.81;;;7.48;100.00
2178;BME280;1095;50.992;6.798;2023-12-20T13:50:07;100767.38;;;7.47;100.00
2178;BME280;1095;50.992;6.798;2023-12-20T13:52:33;100764.75;;;7.47;100.00
2178;BME280;1095;50.992;6.798;2023-12-20T13:55:07;100759.56;;;7.47;100.00
2178;BME280;1095;50.992;6.798;2023-12-20T13:57:33;100760.25;;;7.49;100.00
2178;BME280;1095;50.992;6.798;2023-12-20T14:00:03;100748.59;;;7.44;100.00
2178;BME280;1095;50.992;6.798;2023-12-20T14:02:31;100747.75;;;7.43;100.00
2178;BME280;1095;50.992;6.798;2023-12-20T14:04:58;100738.88;;;7.46;100.00
2178;BME280;1095;50.992;6.798;2023-12-20T14:07:24;100737.22;;;7.45;100.00
2178;BME280;1095;50.992;6.798;2023-12-20T14:09:51;100740.63;;;7.45;100.00
2178;BME280;1095;50.992;6.798;2023-12-20T14:12:17;100742.03;;;7.49;100.00
2178;BME280;1095;50.992;6.798;2023-12-20T14:14:45;100749.16;;;7.47;100.00
2178;BME280;1095;50.992;6.798;2023-12-20T14:17:12;100740.63;;;7.45;100.00
2178;BME280;1095;50.992;6.798;2023-12-20T14:19:40;100739.28;;;7.51;100.00
2178;BME280;1095;50.992;6.798;2023-12-20T14:22:06;100739.00;;;7.44;100.00